Time;durP1;ratioP1;P1;durP2;ratioP2;P2;SDS_P1;SDS_P2;PMS_P1;PMS_P2;Temp;Humidity;BMP_temperature;BMP_pressure;BME280_temperature;BME280_humidity;BME280_pressure;Samples;Min_cycle;Max_cycle;Signal;HPM_P1;HPM_P2
2024/01/25 00:00:49;;;;;;;;;;;22.00;34.20;;;;;;5057411;28;19924;-86
2024/01/25 00:03:16;;;;;;;;;;;22.00;34.20;;;;;;5056819;28;19934;-87
2024/01/25 00:05:43;;;;;;;;;;;22.00;34.20;;;;;;5073287;28;20232;-86
2024/01/25 00:08:10;;;;;;;;;;;22.00;34.20;;;;;;5056790;28;20440;-87
2024/01/25 00:10:40;;;;;;;;;;;22.00;34.20;;;;;;5056546;28;20425;-87
2024/01/25 00:13:07;;;;;;;;;;;22.00;34.20;;;;;;5057046;28;19929;-86
2024/01/25 00:15:34;;;;;;;;;;;22.00;34.20;;;;;;5056697;28;19929;-86
2024/01/25 00:20:37;;;;;;;;;;;22.00;34.30;;;;;;5073315;28;19925;-86
2024/01/25 00:23:06;;;;;;;;;;;21.90;34.20;;;;;;5058237;28;19925;-86
2024/01/25 00:25:34;;;;;;;;;;;22.00;34.30;;;;;;5056395;28;20015;-86
2024/01/25 00:28:01;;;;;;;;;;;22.00;34.30;;;;;;5056755;28;19932;-86
2024/01/25 00:30:38;;;;;;;;;;;22.00;34.30;;;;;;5056697;28;19967;-87
2024/01/25 00:35:36;;;;;;;;;;;21.90;34.20;;;;;;5073413;28;20400;-86
2024/01/25 00:38:05;;;;;;;;;;;22.00;34.30;;;;;;5089160;28;19968;-86
2024/01/25 00:40:33;;;;;;;;;;;22.00;34.30;;;;;;5056919;28;19924;-86
2024/01/25 00:43:03;;;;;;;;;;;21.90;34.20;;;;;;5057086;28;19924;-86
2024/01/25 00:45:30;;;;;;;;;;;21.90;34.80;;;;;;5056598;28;19928;-86
2024/01/25 00:47:58;;;;;;;;;;;21.90;34.30;;;;;;5055702;28;19925;-86
2024/01/25 00:50:28;;;;;;;;;;;21.90;34.20;;;;;;5071752;28;19971;-86
2024/01/25 00:52:58;;;;;;;;;;;21.90;34.30;;;;;;5036982;28;19932;-86
2024/01/25 00:55:28;;;;;;;;;;;21.90;34.30;;;;;;5053106;28;19936;-86
2024/01/25 00:57:55;;;;;;;;;;;21.90;34.20;;;;;;5036844;28;19924;-85
2024/01/25 01:00:25;;;;;;;;;;;21.90;34.20;;;;;;5053286;28;20255;-87
2024/01/25 01:02:53;;;;;;;;;;;21.90;34.20;;;;;;5036772;28;19924;-86
2024/01/25 01:05:22;;;;;;;;;;;21.90;34.20;;;;;;5036138;28;19978;-87
2024/01/25 01:07:50;;;;;;;;;;;21.80;34.20;;;;;;5052934;28;19929;-86
2024/01/25 01:10:20;;;;;;;;;;;21.90;34.20;;;;;;5036475;28;19929;-86
2024/01/25 01:15:19;;;;;;;;;;;21.90;34.20;;;;;;5054067;28;19931;-85
2024/01/25 01:17:49;;;;;;;;;;;21.80;34.20;;;;;;5036571;28;19974;-85
2024/01/25 01:20:19;;;;;;;;;;;21.80;34.20;;;;;;5036120;28;20504;-86
2024/01/25 01:22:54;;;;;;;;;;;21.90;34.20;;;;;;5036925;28;19925;-86
2024/01/25 01:25:21;;;;;;;;;;;21.80;34.20;;;;;;5052599;28;19947;-86
2024/01/25 01:27:48;;;;;;;;;;;21.80;34.20;;;;;;5035937;28;19928;-86
2024/01/25 01:30:16;;;;;;;;;;;21.80;34.20;;;;;;5036782;28;19925;-85
2024/01/25 01:32:44;;;;;;;;;;;21.80;34.20;;;;;;5035768;28;20011;-86
2024/01/25 01:40:10;;;;;;;;;;;21.80;34.20;;;;;;5053574;28;19924;-87
2024/01/25 01:42:38;;;;;;;;;;;21.80;34.20;;;;;;5038010;28;19924;-86
2024/01/25 01:45:06;;;;;;;;;;;21.80;34.20;;;;;;5072671;28;20366;-86
2024/01/25 01:47:34;;;;;;;;;;;21.80;34.20;;;;;;5072055;28;19925;-87
2024/01/25 01:50:01;;;;;;;;;;;21.80;34.20;;;;;;5056979;28;19928;-86
2024/01/25 01:52:28;;;;;;;;;;;21.80;34.20;;;;;;5076182;28;19930;-87
2024/01/25 01:54:56;;;;;;;;;;;21.80;34.20;;;;;;5059471;28;19931;-86
2024/01/25 01:57:23;;;;;;;;;;;21.80;34.20;;;;;;5059675;28;19968;-86
2024/01/25 01:59:50;;;;;;;;;;;21.70;34.20;;;;;;5059585;28;19929;-86
2024/01/25 02:02:17;;;;;;;;;;;21.80;34.20;;;;;;5076009;28;20019;-86
2024/01/25 02:04:45;;;;;;;;;;;21.70;34.10;;;;;;5075885;28;20350;-86
2024/01/25 02:07:14;;;;;;;;;;;21.80;34.20;;;;;;5059023;28;19932;-86
2024/01/25 02:09:41;;;;;;;;;;;21.80;34.20;;;;;;5075839;28;19931;-88
2024/01/25 02:12:08;;;;;;;;;;;21.80;34.20;;;;;;5059322;28;19924;-87
2024/01/25 02:14:36;;;;;;;;;;;21.70;34.10;;;;;;5075119;28;19925;-87
2024/01/25 02:17:03;;;;;;;;;;;21.80;34.10;;;;;;5059066;28;20019;-86
2024/01/25 02:19:30;;;;;;;;;;;21.80;34.10;;;;;;5059157;28;19928;-86
2024/01/25 02:21:58;;;;;;;;;;;21.80;34.10;;;;;;5059063;28;19929;-86
2024/01/25 02:24:26;;;;;;;;;;;21.80;34.10;;;;;;5059090;28;20011;-86
2024/01/25 02:26:59;;;;;;;;;;;21.80;34.10;;;;;;5056423;28;20031;-86
2024/01/25 02:29:26;;;;;;;;;;;21.70;34.10;;;;;;5038837;28;19925;-86
2024/01/25 02:31:58;;;;;;;;;;;21.70;34.10;;;;;;5039712;28;19991;-86
2024/01/25 02:34:25;;;;;;;;;;;21.70;34.10;;;;;;5055467;28;19925;-86
2024/01/25 02:36:52;;;;;;;;;;;21.70;34.10;;;;;;5041009;28;19930;-86
2024/01/25 02:39:20;;;;;;;;;;;21.70;34.10;;;;;;5059002;28;19932;-86
2024/01/25 02:41:47;;;;;;;;;;;21.70;34.10;;;;;;5058676;28;19974;-86
2024/01/25 02:44:14;;;;;;;;;;;21.80;34.10;;;;;;5075224;28;20285;-86
2024/01/25 02:46:44;;;;;;;;;;;21.70;34.10;;;;;;5091766;28;20019;-86
2024/01/25 02:49:11;;;;;;;;;;;21.80;34.10;;;;;;5058788;28;19931;-86
2024/01/25 02:51:39;;;;;;;;;;;21.70;34.00;;;;;;5074812;28;19928;-87
2024/01/25 02:54:06;;;;;;;;;;;21.70;34.10;;;;;;5058693;28;19931;-86
2024/01/25 02:56:35;;;;;;;;;;;21.70;34.10;;;;;;5058612;28;20342;-86
2024/01/25 02:59:05;;;;;;;;;;;21.70;34.00;;;;;;5058921;28;19925;-86
2024/01/25 03:01:43;;;;;;;;;;;21.70;34.10;;;;;;5074418;28;19928;-86
2024/01/25 03:04:11;;;;;;;;;;;21.70;34.10;;;;;;5075153;28;19931;-85
2024/01/25 03:06:38;;;;;;;;;;;21.70;34.10;;;;;;5058227;28;20289;-87
2024/01/25 03:09:06;;;;;;;;;;;21.70;34.00;;;;;;5058367;28;20330;-86
2024/01/25 03:11:35;;;;;;;;;;;21.70;34.00;;;;;;5057626;28;20378;-86
2024/01/25 03:14:02;;;;;;;;;;;21.70;34.00;;;;;;5058348;28;19924;-86
2024/01/25 03:16:30;;;;;;;;;;;21.70;34.00;;;;;;5057737;28;19931;-86
2024/01/25 03:19:00;;;;;;;;;;;21.70;34.10;;;;;;5074518;28;19963;-86
2024/01/25 03:21:32;;;;;;;;;;;21.60;34.00;;;;;;5058441;28;19928;-86
2024/01/25 03:24:01;;;;;;;;;;;21.70;34.00;;;;;;5058732;28;19928;-86
2024/01/25 03:26:29;;;;;;;;;;;21.70;34.00;;;;;;5074194;28;19931;-86
2024/01/25 03:28:56;;;;;;;;;;;21.70;34.00;;;;;;5058363;28;19931;-86
2024/01/25 03:31:24;;;;;;;;;;;21.70;34.00;;;;;;5057928;28;19926;-86
2024/01/25 03:33:54;;;;;;;;;;;21.70;33.90;;;;;;5057550;28;19924;-86
2024/01/25 03:36:28;;;;;;;;;;;21.70;33.90;;;;;;5058955;28;19963;-86
2024/01/25 03:38:58;;;;;;;;;;;21.70;34.00;;;;;;5081212;28;19975;-86
2024/01/25 03:41:29;;;;;;;;;;;21.70;34.00;;;;;;5100535;28;19946;-86
2024/01/25 03:43:56;;;;;;;;;;;21.70;34.00;;;;;;5067417;28;20061;-86
2024/01/25 03:46:23;;;;;;;;;;;21.70;34.00;;;;;;5067180;28;19978;-86
2024/01/25 03:48:50;;;;;;;;;;;21.70;34.10;;;;;;5064299;28;19925;-86
2024/01/25 03:51:20;;;;;;;;;;;21.70;34.10;;;;;;5063372;28;19960;-86
2024/01/25 03:53:47;;;;;;;;;;;21.60;34.00;;;;;;5064081;28;19935;-86
2024/01/25 03:58:42;;;;;;;;;;;21.60;34.00;;;;;;5064794;28;19925;-86
2024/01/25 04:01:09;;;;;;;;;;;21.60;34.00;;;;;;5064533;28;19931;-86
2024/01/25 04:03:37;;;;;;;;;;;21.60;34.00;;;;;;5063243;28;19931;-86
2024/01/25 04:06:07;;;;;;;;;;;21.60;34.00;;;;;;5059809;28;19932;-86
2024/01/25 04:08:34;;;;;;;;;;;21.60;34.00;;;;;;5059774;28;19952;-86
2024/01/25 04:11:01;;;;;;;;;;;21.60;34.00;;;;;;5059526;28;19951;-86
2024/01/25 04:13:28;;;;;;;;;;;21.60;34.00;;;;;;5059197;28;19933;-86
2024/01/25 04:15:56;;;;;;;;;;;21.60;34.00;;;;;;5059026;28;19925;-87
2024/01/25 04:18:23;;;;;;;;;;;21.60;34.00;;;;;;5059436;28;19925;-86
2024/01/25 04:20:50;;;;;;;;;;;21.60;34.00;;;;;;5059513;28;19925;-86
2024/01/25 04:23:21;;;;;;;;;;;21.60;34.00;;;;;;5059075;28;19925;-86
2024/01/25 04:25:49;;;;;;;;;;;21.60;33.90;;;;;;5058735;28;20436;-86
2024/01/25 04:28:16;;;;;;;;;;;21.60;33.90;;;;;;5059132;28;19932;-86
2024/01/25 04:30:44;;;;;;;;;;;21.60;33.90;;;;;;5058594;28;19932;-85
2024/01/25 04:33:11;;;;;;;;;;;21.60;33.90;;;;;;5053402;28;19978;-86
2024/01/25 04:35:43;;;;;;;;;;;21.60;33.90;;;;;;5053553;28;19933;-86
2024/01/25 04:38:15;;;;;;;;;;;21.60;33.90;;;;;;5053164;28;19925;-86
2024/01/25 04:40:42;;;;;;;;;;;21.60;33.70;;;;;;5052873;28;19925;-86
2024/01/25 04:43:11;;;;;;;;;;;21.60;33.60;;;;;;5062037;28;19928;-87
2024/01/25 04:45:38;;;;;;;;;;;21.60;33.40;;;;;;5053280;28;19929;-86
2024/01/25 04:48:08;;;;;;;;;;;21.50;33.30;;;;;;5037177;28;19925;-86
2024/01/25 04:50:36;;;;;;;;;;;21.50;33.20;;;;;;5036610;28;19990;-86
2024/01/25 04:53:03;;;;;;;;;;;21.50;33.20;;;;;;5041267;28;20690;-86
2024/01/25 04:55:35;;;;;;;;;;;21.50;33.20;;;;;;5078932;28;19924;-86
2024/01/25 04:58:11;;;;;;;;;;;21.50;33.20;;;;;;5073174;28;20035;-85
2024/01/25 05:00:39;;;;;;;;;;;21.50;33.10;;;;;;5071866;28;19936;-86
2024/01/25 05:03:07;;;;;;;;;;;21.50;33.00;;;;;;5060499;28;19925;-86
2024/01/25 05:05:36;;;;;;;;;;;21.50;33.00;;;;;;5055539;28;20023;-86
2024/01/25 05:08:03;;;;;;;;;;;21.50;33.00;;;;;;5036498;28;20362;-87
2024/01/25 05:10:31;;;;;;;;;;;21.50;33.00;;;;;;5036385;28;20345;-86
2024/01/25 05:12:58;;;;;;;;;;;21.50;32.90;;;;;;5036292;28;19956;-86
2024/01/25 05:15:25;;;;;;;;;;;21.50;32.90;;;;;;5036343;28;19925;-87
2024/01/25 05:18:02;;;;;;;;;;;21.50;32.90;;;;;;5036365;28;19925;-86
2024/01/25 05:20:36;;;;;;;;;;;21.50;32.90;;;;;;5058387;28;20277;-86
2024/01/25 05:23:04;;;;;;;;;;;21.50;32.90;;;;;;5069192;28;19986;-87
2024/01/25 05:27:59;;;;;;;;;;;21.50;32.90;;;;;;5066372;28;20370;-86
2024/01/25 05:30:26;;;;;;;;;;;21.50;32.80;;;;;;5039896;28;20024;-86
2024/01/25 05:33:04;;;;;;;;;;;21.50;32.80;;;;;;5056267;28;19924;-88
2024/01/25 05:35:35;;;;;;;;;;;21.50;32.80;;;;;;5056771;28;19928;-86
2024/01/25 05:38:03;;;;;;;;;;;21.40;32.70;;;;;;5091777;28;19932;-88
2024/01/25 05:40:30;;;;;;;;;;;21.50;32.70;;;;;;5055208;28;20006;-87
2024/01/25 05:43:00;;;;;;;;;;;21.50;32.70;;;;;;5067646;28;20304;-86
2024/01/25 05:45:33;;;;;;;;;;;21.50;32.70;;;;;;5079300;28;19928;-85
2024/01/25 05:48:02;;;;;;;;;;;21.50;32.70;;;;;;5079599;28;19932;-86
2024/01/25 05:50:33;;;;;;;;;;;21.50;32.70;;;;;;5080061;28;19974;-87
2024/01/25 05:53:00;;;;;;;;;;;21.50;32.70;;;;;;5096230;28;19973;-86
2024/01/25 05:55:27;;;;;;;;;;;21.50;32.70;;;;;;5060597;28;19924;-86
2024/01/25 05:57:54;;;;;;;;;;;21.50;32.70;;;;;;5055500;28;19924;-86
2024/01/25 06:00:22;;;;;;;;;;;21.50;32.70;;;;;;5056171;28;19960;-87
2024/01/25 06:02:49;;;;;;;;;;;21.60;32.80;;;;;;5060077;28;19939;-87
2024/01/25 06:07:53;;;;;;;;;;;21.60;32.80;;;;;;5093763;28;19928;-87
2024/01/25 06:10:20;;;;;;;;;;;21.70;32.70;;;;;;5055660;28;20322;-88
2024/01/25 06:12:47;;;;;;;;;;;21.70;32.70;;;;;;5067347;28;19944;-87
2024/01/25 06:15:15;;;;;;;;;;;21.70;32.70;;;;;;5048384;28;19925;-88
2024/01/25 06:17:42;;;;;;;;;;;21.70;32.70;;;;;;5072614;28;19925;-88
2024/01/25 06:22:49;;;;;;;;;;;21.80;32.80;;;;;;5060225;28;20028;-90
2024/01/25 06:25:16;;;;;;;;;;;21.70;32.80;;;;;;5054562;28;19928;-88
2024/01/25 06:27:44;;;;;;;;;;;21.70;33.00;;;;;;5056011;28;19939;-90
2024/01/25 06:30:13;;;;;;;;;;;21.80;33.10;;;;;;5048739;28;19932;-90
2024/01/25 06:32:43;;;;;;;;;;;21.90;33.20;;;;;;5066172;28;19955;-86
2024/01/25 06:35:11;;;;;;;;;;;21.90;33.10;;;;;;5047211;28;19933;-85
2024/01/25 06:37:44;;;;;;;;;;;21.90;33.40;;;;;;5054519;28;19931;-86
2024/01/25 06:40:11;;;;;;;;;;;21.90;33.70;;;;;;5069154;28;19952;-86
2024/01/25 06:42:42;;;;;;;;;;;21.90;34.00;;;;;;5062265;28;19931;-87
2024/01/25 06:45:13;;;;;;;;;;;22.00;34.00;;;;;;5065376;28;19932;-86
2024/01/25 06:47:57;;;;;;;;;;;22.00;33.90;;;;;;5051815;28;20047;-87
2024/01/25 06:51:49;;;;;;;;;;;22.00;33.80;;;;;;5057787;28;19932;-86
2024/01/25 06:54:15;;;;;;;;;;;22.00;33.80;;;;;;5043245;28;19994;-88
2024/01/25 06:56:51;;;;;;;;;;;22.00;33.60;;;;;;5047486;28;20384;-89
2024/01/25 06:59:19;;;;;;;;;;;22.10;33.40;;;;;;5018843;28;20063;-90
2024/01/25 07:01:46;;;;;;;;;;;22.10;33.10;;;;;;5017256;28;19925;-90
2024/01/25 07:04:47;;;;;;;;;;;22.10;33.10;;;;;;5013484;28;19965;-91
2024/01/25 07:07:08;;;;;;;;;;;22.10;33.20;;;;;;5017931;28;19941;-89
2024/01/25 07:09:36;;;;;;;;;;;22.20;33.30;;;;;;5007443;28;20358;-86
2024/01/25 07:12:03;;;;;;;;;;;22.30;33.50;;;;;;5028675;28;19995;-87
2024/01/25 07:14:31;;;;;;;;;;;22.30;33.70;;;;;;5022928;28;19932;-88
2024/01/25 07:16:58;;;;;;;;;;;22.40;33.80;;;;;;5018866;28;20606;-88
2024/01/25 07:19:26;;;;;;;;;;;22.50;34.00;;;;;;5022311;28;19933;-90
2024/01/25 07:21:53;;;;;;;;;;;22.50;34.10;;;;;;5024113;28;20067;-90
2024/01/25 07:24:20;;;;;;;;;;;22.60;34.20;;;;;;5022807;28;19958;-91
2024/01/25 07:26:47;;;;;;;;;;;22.60;34.20;;;;;;5013200;28;20055;-90
2024/01/25 07:29:17;;;;;;;;;;;22.70;34.20;;;;;;5048441;28;19935;-92
2024/01/25 07:31:44;;;;;;;;;;;22.60;34.30;;;;;;5050156;28;19932;-89
2024/01/25 07:34:11;;;;;;;;;;;22.70;34.40;;;;;;5062042;28;19933;-92
2024/01/25 07:36:39;;;;;;;;;;;22.80;34.50;;;;;;5051472;28;19933;-92
2024/01/25 07:39:06;;;;;;;;;;;22.80;34.80;;;;;;5062614;28;20274;-87
2024/01/25 07:41:34;;;;;;;;;;;22.80;34.80;;;;;;5048049;28;21307;-86
2024/01/25 07:44:05;;;;;;;;;;;22.90;35.00;;;;;;5053548;28;19939;-88
2024/01/25 07:46:33;;;;;;;;;;;22.90;35.20;;;;;;5056961;28;19933;-89
2024/01/25 07:49:00;;;;;;;;;;;22.90;35.20;;;;;;5059669;28;19932;-90
2024/01/25 07:51:28;;;;;;;;;;;22.90;35.30;;;;;;5052167;28;19932;-91
2024/01/25 07:54:05;;;;;;;;;;;22.90;35.00;;;;;;5069145;28;20373;-93
2024/01/25 07:56:33;;;;;;;;;;;22.90;34.80;;;;;;5068477;28;19977;-93
2024/01/25 07:59:01;;;;;;;;;;;23.00;34.60;;;;;;5060532;28;19925;-91
2024/01/25 08:01:28;;;;;;;;;;;23.00;34.00;;;;;;5047827;28;20315;-88
2024/01/25 08:06:49;;;;;;;;;;;23.00;33.60;;;;;;5061685;28;19959;-88
2024/01/25 08:09:17;;;;;;;;;;;23.10;34.00;;;;;;5050540;28;19975;-88
2024/01/25 08:11:44;;;;;;;;;;;23.10;34.00;;;;;;5050720;28;19929;-88
2024/01/25 08:14:12;;;;;;;;;;;23.10;34.20;;;;;;5063978;28;19924;-86
2024/01/25 08:16:39;;;;;;;;;;;23.20;34.40;;;;;;5061338;28;19971;-91
2024/01/25 08:19:06;;;;;;;;;;;23.30;34.70;;;;;;5065054;28;20020;-86
2024/01/25 08:21:35;;;;;;;;;;;23.30;34.60;;;;;;5051082;28;19933;-88
2024/01/25 15:54:18;;;;;;;;;;;;;;;;;;;;;
2024/01/25 15:57:00;;;;;;;;;;;24.40;33.30;;;;;;5048600;23;19939;-58
2024/01/25 15:59:27;;;;;;;;;;;24.30;33.00;;;;;;5080573;28;19946;-57
2024/01/25 16:01:54;;;;;;;;;;;24.30;33.20;;;;;;5060124;28;19960;-58
2024/01/25 16:04:20;;;;;;;;;;;24.30;33.20;;;;;;5052823;28;19925;-58
2024/01/25 16:06:48;;;;;;;;;;;24.20;33.00;;;;;;5053317;28;19924;-58
2024/01/25 16:09:15;;;;;;;;;;;24.20;32.90;;;;;;5065568;28;19974;-58
2024/01/25 16:11:42;;;;;;;;;;;24.10;32.90;;;;;;5072983;28;19924;-57
2024/01/25 16:14:09;;;;;;;;;;;24.10;32.90;;;;;;5072925;28;19931;-58
2024/01/25 16:16:36;;;;;;;;;;;24.00;33.00;;;;;;5072898;28;19924;-58
2024/01/25 16:19:02;;;;;;;;;;;24.00;33.10;;;;;;5055555;28;20429;-57
2024/01/25 16:21:31;;;;;;;;;;;24.00;33.30;;;;;;5072927;28;20401;-57
2024/01/25 16:23:59;;;;;;;;;;;23.90;33.40;;;;;;5072940;28;19964;-57
2024/01/25 16:26:26;;;;;;;;;;;23.90;33.60;;;;;;5072928;28;19932;-58
2024/01/25 16:28:53;;;;;;;;;;;23.80;33.70;;;;;;5068299;28;20398;-59
2024/01/25 16:31:20;;;;;;;;;;;23.80;33.80;;;;;;5067533;28;20420;-58
2024/01/25 16:33:47;;;;;;;;;;;23.70;33.90;;;;;;5052279;28;19925;-56
2024/01/25 16:36:14;;;;;;;;;;;23.70;34.00;;;;;;5052789;28;20409;-57
2024/01/25 16:38:41;;;;;;;;;;;23.70;34.00;;;;;;5053052;28;19932;-58
2024/01/25 16:41:08;;;;;;;;;;;23.60;34.00;;;;;;5053195;28;19936;-57
2024/01/25 16:43:35;;;;;;;;;;;23.60;34.60;;;;;;5035161;28;19979;-57
2024/01/25 16:46:02;;;;;;;;;;;23.60;34.10;;;;;;5035238;28;19925;-58
2024/01/25 16:48:29;;;;;;;;;;;23.50;34.20;;;;;;5052616;28;19925;-58
2024/01/25 16:50:56;;;;;;;;;;;23.50;34.30;;;;;;5055716;28;20383;-59
2024/01/25 16:53:23;;;;;;;;;;;23.50;34.30;;;;;;5072827;28;19925;-57
2024/01/25 16:55:50;;;;;;;;;;;23.40;34.30;;;;;;5073369;28;19928;-57
2024/01/25 16:58:17;;;;;;;;;;;23.40;34.30;;;;;;5072803;28;19932;-57
2024/01/25 17:00:44;;;;;;;;;;;23.40;34.40;;;;;;5073110;28;20313;-55
2024/01/25 17:03:11;;;;;;;;;;;23.40;34.50;;;;;;5072038;28;19943;-55
2024/01/25 17:05:38;;;;;;;;;;;23.40;34.70;;;;;;5062341;28;19924;-52
2024/01/25 17:08:05;;;;;;;;;;;23.40;35.00;;;;;;5052480;28;19983;-57
2024/01/25 17:10:32;;;;;;;;;;;23.30;35.60;;;;;;5051282;28;20263;-55
2024/01/25 17:12:59;;;;;;;;;;;23.30;36.60;;;;;;5052469;28;20039;-57
2024/01/25 17:15:26;;;;;;;;;;;23.30;37.60;;;;;;5052847;28;20344;-56
2024/01/25 17:17:52;;;;;;;;;;;23.30;38.60;;;;;;5069409;28;20340;-55
2024/01/25 17:20:19;;;;;;;;;;;23.30;39.40;;;;;;5074529;28;19925;-56
2024/01/25 17:22:47;;;;;;;;;;;23.20;40.00;;;;;;5076012;28;20018;-56
2024/01/25 17:25:14;;;;;;;;;;;23.20;40.30;;;;;;5076405;28;19978;-55
2024/01/25 17:27:41;;;;;;;;;;;23.20;40.20;;;;;;5074273;28;19924;-54
2024/01/25 17:30:08;;;;;;;;;;;23.10;40.10;;;;;;5076769;28;19924;-57
2024/01/25 17:32:35;;;;;;;;;;;23.20;40.20;;;;;;5076255;28;20373;-57
2024/01/25 17:35:02;;;;;;;;;;;23.10;40.00;;;;;;5076232;28;19978;-58
2024/01/25 17:37:29;;;;;;;;;;;23.10;40.50;;;;;;5076306;28;19970;-57
2024/01/25 17:39:56;;;;;;;;;;;23.10;40.80;;;;;;5073722;28;20123;-57
2024/01/25 17:42:23;;;;;;;;;;;23.00;40.70;;;;;;5075665;28;19924;-58
2024/01/25 17:44:50;;;;;;;;;;;23.10;40.60;;;;;;5074969;28;20020;-57
2024/01/25 17:47:17;;;;;;;;;;;23.00;40.40;;;;;;5043064;28;19932;-57
2024/01/25 17:49:44;;;;;;;;;;;23.00;40.20;;;;;;5057345;28;19924;-57
2024/01/25 17:52:11;;;;;;;;;;;23.00;40.00;;;;;;5054856;28;20370;-57
2024/01/25 17:54:39;;;;;;;;;;;23.00;39.90;;;;;;5055810;28;20461;-57
2024/01/25 17:57:06;;;;;;;;;;;23.00;39.70;;;;;;5071756;28;19930;-59
2024/01/25 17:59:33;;;;;;;;;;;23.00;39.60;;;;;;5075772;28;20298;-57
2024/01/25 18:02:02;;;;;;;;;;;23.00;39.40;;;;;;5075918;28;19924;-56
2024/01/25 18:04:29;;;;;;;;;;;22.90;39.10;;;;;;5073838;28;20323;-57
2024/01/25 18:06:56;;;;;;;;;;;23.00;39.00;;;;;;5059703;28;20317;-58
2024/01/25 18:09:23;;;;;;;;;;;22.90;38.80;;;;;;5056462;28;19925;-58
2024/01/25 18:11:52;;;;;;;;;;;22.90;38.70;;;;;;5056687;28;20017;-57
2024/01/25 18:14:19;;;;;;;;;;;22.80;38.50;;;;;;5074238;28;19928;-56
2024/01/25 18:16:46;;;;;;;;;;;22.90;38.50;;;;;;5075638;28;20281;-58
2024/01/25 18:19:13;;;;;;;;;;;22.80;38.40;;;;;;5075438;28;19928;-58
2024/01/25 18:21:41;;;;;;;;;;;22.80;38.30;;;;;;5075282;28;20016;-57
2024/01/25 18:24:08;;;;;;;;;;;22.80;38.90;;;;;;5074430;28;19932;-57
2024/01/25 18:26:36;;;;;;;;;;;22.80;38.30;;;;;;5075156;28;20179;-57
2024/01/25 18:29:03;;;;;;;;;;;22.80;38.20;;;;;;5075395;28;20306;-57
2024/01/25 18:31:30;;;;;;;;;;;22.80;38.20;;;;;;5054977;28;19925;-57
2024/01/25 18:33:57;;;;;;;;;;;22.80;38.20;;;;;;5072916;28;20285;-57
2024/01/25 18:36:24;;;;;;;;;;;22.70;38.10;;;;;;5075187;28;19924;-57
2024/01/25 18:38:51;;;;;;;;;;;22.70;38.10;;;;;;5075176;28;19931;-57
2024/01/25 18:41:18;;;;;;;;;;;22.70;38.10;;;;;;5073692;28;20431;-57
2024/01/25 18:43:45;;;;;;;;;;;22.70;38.10;;;;;;5075054;28;19929;-56
2024/01/25 18:46:12;;;;;;;;;;;22.70;38.10;;;;;;5072881;28;19928;-56
2024/01/25 18:48:39;;;;;;;;;;;22.60;38.10;;;;;;5074582;28;20015;-57
2024/01/25 18:51:06;;;;;;;;;;;22.60;38.10;;;;;;5074917;28;19977;-56
2024/01/25 18:53:34;;;;;;;;;;;22.60;38.10;;;;;;5074927;28;19928;-57
2024/01/25 18:56:02;;;;;;;;;;;22.60;38.10;;;;;;5074646;28;20039;-57
2024/01/25 18:58:30;;;;;;;;;;;22.60;38.00;;;;;;5074997;28;19924;-57
2024/01/25 19:00:57;;;;;;;;;;;22.60;38.00;;;;;;5074957;28;20300;-58
2024/01/25 19:03:24;;;;;;;;;;;22.60;38.00;;;;;;5074243;28;19925;-57
2024/01/25 19:05:55;;;;;;;;;;;22.60;38.00;;;;;;5074919;28;19982;-57
2024/01/25 19:08:25;;;;;;;;;;;22.60;38.00;;;;;;5074172;28;19931;-57
2024/01/25 19:10:53;;;;;;;;;;;22.60;37.90;;;;;;5074657;28;19964;-54
2024/01/25 19:13:21;;;;;;;;;;;22.60;37.80;;;;;;5074208;28;19925;-58
2024/01/25 19:15:49;;;;;;;;;;;22.60;37.70;;;;;;5074679;28;20293;-57
2024/01/25 19:18:16;;;;;;;;;;;22.50;37.60;;;;;;5074125;28;19925;-57
2024/01/25 19:20:43;;;;;;;;;;;22.50;37.50;;;;;;5074249;28;19928;-57
2024/01/25 19:23:10;;;;;;;;;;;22.50;37.50;;;;;;5074076;28;20370;-56
2024/01/25 19:25:37;;;;;;;;;;;22.50;37.40;;;;;;5074112;28;19924;-57
2024/01/25 19:28:04;;;;;;;;;;;22.50;37.40;;;;;;5073941;28;19932;-57
2024/01/25 19:30:33;;;;;;;;;;;22.50;37.40;;;;;;5074450;28;20292;-56
2024/01/25 19:33:00;;;;;;;;;;;22.50;37.30;;;;;;5074316;28;19924;-58
2024/01/25 19:35:27;;;;;;;;;;;22.50;37.30;;;;;;5074254;28;19931;-57
2024/01/25 19:37:54;;;;;;;;;;;22.40;37.20;;;;;;5073391;28;19978;-57
2024/01/25 19:40:21;;;;;;;;;;;22.40;37.20;;;;;;5074083;28;19931;-57
2024/01/25 19:42:49;;;;;;;;;;;22.40;37.10;;;;;;5073642;28;19931;-58
2024/01/25 19:45:16;;;;;;;;;;;22.40;37.10;;;;;;5073881;28;20499;-57
2024/01/25 19:47:43;;;;;;;;;;;22.40;37.10;;;;;;5073184;28;19930;-57
2024/01/25 19:50:10;;;;;;;;;;;22.40;37.00;;;;;;5073673;28;19928;-57
2024/01/25 19:52:37;;;;;;;;;;;22.40;37.00;;;;;;5073412;28;19987;-57
2024/01/25 19:55:06;;;;;;;;;;;22.30;36.90;;;;;;5074180;28;20327;-56
2024/01/25 19:57:33;;;;;;;;;;;22.30;36.90;;;;;;5073314;28;20042;-57
2024/01/25 20:00:00;;;;;;;;;;;22.30;36.90;;;;;;5073260;28;19973;-57
2024/01/25 20:02:28;;;;;;;;;;;22.30;36.90;;;;;;5073804;28;19924;-58
2024/01/25 20:04:55;;;;;;;;;;;22.30;36.90;;;;;;5073424;28;19932;-56
2024/01/25 20:07:23;;;;;;;;;;;22.30;36.90;;;;;;5073756;28;19924;-56
2024/01/25 20:09:50;;;;;;;;;;;22.30;36.90;;;;;;5072840;28;19925;-57
2024/01/25 20:12:17;;;;;;;;;;;22.30;36.90;;;;;;5055693;28;19931;-57
2024/01/25 20:14:44;;;;;;;;;;;22.20;36.80;;;;;;5073637;28;19971;-56
2024/01/25 20:17:11;;;;;;;;;;;22.20;36.90;;;;;;5056072;28;19925;-56
2024/01/25 20:19:38;;;;;;;;;;;22.20;36.80;;;;;;5072540;28;20382;-58
2024/01/25 20:22:05;;;;;;;;;;;22.20;36.70;;;;;;5073240;28;19924;-57
2024/01/25 20:24:32;;;;;;;;;;;22.20;36.60;;;;;;5073126;28;20363;-63
2024/01/25 20:26:59;;;;;;;;;;;22.20;36.50;;;;;;5072749;28;19928;-65
2024/01/25 20:29:26;;;;;;;;;;;22.20;36.50;;;;;;5073126;28;19928;-59
2024/01/25 20:31:53;;;;;;;;;;;22.20;36.50;;;;;;5073223;28;19974;-65
2024/01/25 20:34:21;;;;;;;;;;;22.20;36.50;;;;;;5072348;28;20035;-61
2024/01/25 20:36:48;;;;;;;;;;;22.20;36.50;;;;;;5073283;28;19932;-66
2024/01/25 20:39:15;;;;;;;;;;;22.10;36.50;;;;;;5073051;28;19924;-61
2024/01/25 20:41:42;;;;;;;;;;;22.10;36.50;;;;;;5073056;28;19951;-57
2024/01/25 20:44:09;;;;;;;;;;;22.10;36.50;;;;;;5072915;28;19971;-57
2024/01/25 20:46:35;;;;;;;;;;;22.10;36.40;;;;;;5071773;28;19930;-58
2024/01/25 20:49:02;;;;;;;;;;;22.10;36.40;;;;;;5072813;28;20384;-57
2024/01/25 20:51:29;;;;;;;;;;;22.10;36.40;;;;;;5072885;28;19925;-60
2024/01/25 20:53:57;;;;;;;;;;;22.10;36.40;;;;;;5073195;28;19937;-61
2024/01/25 20:56:30;;;;;;;;;;;22.10;36.40;;;;;;5076925;28;19959;-61
2024/01/25 20:58:57;;;;;;;;;;;22.00;36.40;;;;;;5076846;28;19982;-65
2024/01/25 21:01:24;;;;;;;;;;;22.00;36.30;;;;;;5077074;28;19960;-61
2024/01/25 21:03:51;;;;;;;;;;;22.00;36.40;;;;;;5076886;28;19936;-56
2024/01/25 21:06:20;;;;;;;;;;;22.00;36.30;;;;;;5077274;28;19924;-56
2024/01/25 21:08:48;;;;;;;;;;;22.00;36.30;;;;;;5076544;28;20285;-56
2024/01/25 21:11:15;;;;;;;;;;;22.00;36.30;;;;;;5077043;28;19928;-57
2024/01/25 21:13:48;;;;;;;;;;;22.00;36.20;;;;;;5076868;28;19924;-61
2024/01/25 21:16:18;;;;;;;;;;;22.00;36.30;;;;;;5076770;28;20365;-57
2024/01/25 21:18:50;;;;;;;;;;;22.00;36.20;;;;;;5076913;28;19925;-57
2024/01/25 21:21:17;;;;;;;;;;;21.90;36.20;;;;;;5076371;28;19931;-57
2024/01/25 21:23:44;;;;;;;;;;;21.90;36.20;;;;;;5075144;28;19977;-57
2024/01/25 21:26:11;;;;;;;;;;;22.00;36.30;;;;;;5076522;28;20407;-58
2024/01/25 21:28:38;;;;;;;;;;;22.00;36.20;;;;;;5076487;28;19925;-57
2024/01/25 21:31:05;;;;;;;;;;;22.00;36.20;;;;;;5076324;28;20369;-57
2024/01/25 21:33:32;;;;;;;;;;;22.00;36.10;;;;;;5076110;28;19928;-56
2024/01/25 21:35:59;;;;;;;;;;;22.00;36.10;;;;;;5076446;28;19931;-57
2024/01/25 21:38:26;;;;;;;;;;;22.00;36.10;;;;;;5076082;28;20312;-57
2024/01/25 21:40:53;;;;;;;;;;;22.00;36.10;;;;;;5076199;28;19924;-58
2024/01/25 21:43:20;;;;;;;;;;;21.90;36.00;;;;;;5076024;28;20014;-58
2024/01/25 21:45:47;;;;;;;;;;;21.90;36.00;;;;;;5075763;28;19935;-57
2024/01/25 21:48:14;;;;;;;;;;;21.90;36.00;;;;;;5076054;28;19981;-57
2024/01/25 21:50:42;;;;;;;;;;;21.90;36.00;;;;;;5075889;28;19924;-57
2024/01/25 21:53:09;;;;;;;;;;;21.90;36.00;;;;;;5075985;28;19974;-58
2024/01/25 21:55:37;;;;;;;;;;;21.90;36.00;;;;;;5075807;28;19977;-58
2024/01/25 21:58:04;;;;;;;;;;;21.90;36.00;;;;;;5075683;28;19982;-58
2024/01/25 22:00:31;;;;;;;;;;;21.90;36.00;;;;;;5075725;28;19970;-58
2024/01/25 22:02:59;;;;;;;;;;;21.90;36.00;;;;;;5076038;28;20348;-57
2024/01/25 22:05:26;;;;;;;;;;;21.90;36.00;;;;;;5075646;28;19924;-57
2024/01/25 22:07:53;;;;;;;;;;;21.90;36.00;;;;;;5074176;28;20339;-58
2024/01/25 22:10:23;;;;;;;;;;;21.80;35.90;;;;;;5075983;28;19964;-58
2024/01/25 22:12:50;;;;;;;;;;;21.80;35.90;;;;;;5075465;28;19931;-58
2024/01/25 22:15:17;;;;;;;;;;;21.80;35.80;;;;;;5075657;28;19929;-58
2024/01/25 22:17:44;;;;;;;;;;;21.80;35.80;;;;;;5075405;28;20285;-58
2024/01/25 22:20:12;;;;;;;;;;;21.80;35.80;;;;;;5075351;28;20304;-58